Time;durP1;ratioP1;P1;durP2;ratioP2;P2;SDS_P1;SDS_P2;PMS_P1;PMS_P2;Temp;Humidity;BMP_temperature;BMP_pressure;BME280_temperature;BME280_humidity;BME280_pressure;Samples;Min_cycle;Max_cycle;Signal;HPM_P1;HPM_P2
2023/04/28 00:01:42;;;;;;;13.57;8.85;;;5.20;99.90;;;;;;4997011;28;20073;-61
2023/04/28 00:04:07;;;;;;;13.30;8.65;;;5.20;99.90;;;;;;5015055;28;20046;-61
2023/04/28 00:06:33;;;;;;;16.17;8.35;;;5.10;99.90;;;;;;5014229;28;20133;-64
2023/04/28 00:08:59;;;;;;;13.23;8.32;;;5.30;99.90;;;;;;5014265;28;20056;-62
2023/04/28 00:11:24;;;;;;;13.52;8.63;;;5.20;99.90;;;;;;5014824;28;20046;-61
2023/04/28 00:13:50;;;;;;;13.52;8.63;;;5.10;99.90;;;;;;5014210;28;20136;-61
2023/04/28 00:16:16;;;;;;;13.35;8.25;;;5.10;99.90;;;;;;5014179;28;20129;-61
2023/04/28 00:18:42;;;;;;;12.30;8.65;;;5.30;99.90;;;;;;5014033;28;20041;-61
2023/04/28 00:21:08;;;;;;;13.43;8.68;;;5.00;99.90;;;;;;5014074;28;20050;-62
2023/04/28 00:23:34;;;;;;;13.02;8.18;;;5.10;99.90;;;;;;5013162;28;20061;-65
2023/04/28 00:26:00;;;;;;;12.40;8.25;;;5.20;99.90;;;;;;5014235;28;20509;-62
2023/04/28 00:28:25;;;;;;;13.90;8.77;;;5.20;99.90;;;;;;5013666;28;20054;-62
2023/04/28 00:30:51;;;;;;;12.80;8.40;;;5.30;99.90;;;;;;5014194;28;20046;-61
2023/04/28 00:33:17;;;;;;;16.17;8.70;;;5.00;99.90;;;;;;5014202;28;20046;-63
2023/04/28 00:35:42;;;;;;;12.00;8.80;;;5.10;99.90;;;;;;5013857;28;20108;-61
2023/04/28 00:38:08;;;;;;;12.93;9.85;;;5.00;99.90;;;;;;5013873;28;20107;-62
2023/04/28 00:40:38;;;;;;;13.05;9.13;;;;;;;;;;5013802;28;20077;-63
2023/04/28 00:43:04;;;;;;;12.57;8.80;;;5.10;99.90;;;;;;4990403;28;20432;-64
2023/04/28 00:45:31;;;;;;;13.63;9.13;;;5.00;99.90;;;;;;4989767;28;20055;-62
2023/04/28 00:47:58;;;;;;;13.70;9.73;;;4.90;99.90;;;;;;4973478;28;20050;-62
2023/04/28 00:50:25;;;;;;;13.32;9.20;;;4.80;99.90;;;;;;4974835;28;20419;-63
2023/04/28 00:52:51;;;;;;;20.05;10.13;;;4.90;99.90;;;;;;4990155;28;20203;-63
2023/04/28 00:55:18;;;;;;;15.70;10.27;;;5.00;99.90;;;;;;4974574;28;20513;-62
2023/04/28 00:57:45;;;;;;;16.77;10.07;;;4.90;99.90;;;;;;4974580;28;20058;-63
2023/04/28 01:00:11;;;;;;;14.93;9.55;;;4.70;99.90;;;;;;4974594;28;20046;-62
2023/04/28 01:02:37;;;;;;;;;;;;;;;;;;4975402;28;20061;-71
2023/04/28 01:05:04;;;;;;;14.50;9.02;;;5.10;99.90;;;;;;4974514;28;20357;-61
2023/04/28 01:07:29;;;;;;;17.10;9.75;;;5.10;99.90;;;;;;4974909;28;20047;-63
2023/04/28 01:09:55;;;;;;;16.48;10.45;;;4.60;99.90;;;;;;4974390;28;20372;-62
2023/04/28 01:12:21;;;;;;;20.30;12.38;;;4.70;99.90;;;;;;4974957;28;20042;-61
2023/04/28 01:14:48;;;;;;;19.20;11.93;;;4.80;99.90;;;;;;4974471;28;20055;-62
2023/04/28 01:17:15;;;;;;;20.85;12.00;;;4.70;99.90;;;;;;4974392;28;20058;-61
2023/04/28 01:19:40;;;;;;;16.65;10.25;;;4.80;99.90;;;;;;4974370;28;20057;-61
2023/04/28 01:22:06;;;;;;;15.88;9.75;;;4.90;99.90;;;;;;4974057;28;20038;-61
2023/04/28 01:24:32;;;;;;;14.90;9.93;;;;;;;;;;4974315;28;20105;-61
2023/04/28 01:26:58;;;;;;;14.93;9.90;;;4.60;99.90;;;;;;4974766;28;20051;-63
2023/04/28 01:29:23;;;;;;;19.50;10.50;;;4.60;99.90;;;;;;4974719;28;20121;-62
2023/04/28 01:31:49;;;;;;;15.77;10.35;;;4.70;99.90;;;;;;4974230;28;20092;-62
2023/04/28 01:34:15;;;;;;;19.40;10.30;;;5.10;99.90;;;;;;4975840;28;20082;-62
2023/04/28 01:36:41;;;;;;;18.55;10.73;;;4.80;99.90;;;;;;4977934;28;20375;-62
2023/04/28 01:39:07;;;;;;;16.23;10.15;;;4.80;99.90;;;;;;4977905;28;20134;-64
2023/04/28 01:41:35;;;;;;;16.05;10.82;;;4.80;99.90;;;;;;4993374;28;20066;-61
2023/04/28 01:44:01;;;;;;;15.23;10.40;;;5.10;99.90;;;;;;5017639;28;20046;-62
2023/04/28 01:46:27;;;;;;;16.00;10.93;;;5.00;99.90;;;;;;5016554;28;20056;-61
2023/04/28 01:48:52;;;;;;;16.85;10.05;;;4.70;99.90;;;;;;5017565;28;20056;-62
2023/04/28 01:51:18;;;;;;;16.08;10.23;;;4.70;99.90;;;;;;5016789;28;20042;-61
2023/04/28 01:53:44;;;;;;;15.30;9.98;;;4.70;99.90;;;;;;5017042;28;20046;-61
2023/04/28 01:56:09;;;;;;;15.95;9.38;;;5.50;99.90;;;;;;5016750;28;20509;-63
2023/04/28 01:58:35;;;;;;;13.30;9.50;;;4.80;99.90;;;;;;5016612;28;20100;-62
2023/04/28 02:01:01;;;;;;;14.68;9.55;;;5.00;99.90;;;;;;5016724;28;20050;-62
2023/04/28 02:03:27;;;;;;;13.02;9.07;;;5.20;99.90;;;;;;5016683;28;20049;-62
2023/04/28 02:05:53;;;;;;;13.63;8.82;;;5.40;99.90;;;;;;5016531;28;20100;-61
2023/04/28 02:08:19;;;;;;;17.45;8.85;;;4.80;99.90;;;;;;5016541;28;20045;-62
2023/04/28 02:10:44;;;;;;;13.10;9.40;;;5.50;99.90;;;;;;5016981;28;20486;-61
2023/04/28 02:13:10;;;;;;;13.50;9.60;;;5.20;99.90;;;;;;5016971;28;20421;-62
2023/04/28 02:15:43;;;;;;;18.65;9.45;;;5.30;99.90;;;;;;5016390;28;20490;-62
2023/04/28 02:18:11;;;;;;;12.90;8.98;;;5.60;99.90;;;;;;5016271;28;20046;-62
2023/04/28 02:20:37;;;;;;;12.80;8.85;;;5.20;99.90;;;;;;5015566;28;20164;-61
2023/04/28 02:23:03;;;;;;;14.43;9.63;;;5.40;99.90;;;;;;5016230;28;20133;-61
2023/04/28 02:25:28;;;;;;;13.30;9.00;;;5.50;99.90;;;;;;5016359;28;20053;-62
2023/04/28 02:27:54;;;;;;;18.73;10.02;;;5.50;99.90;;;;;;5016102;28;20172;-62
2023/04/28 02:30:20;;;;;;;16.75;9.68;;;5.50;99.90;;;;;;5016195;28;20378;-61
2023/04/28 02:32:46;;;;;;;15.65;9.65;;;5.30;99.90;;;;;;5016107;28;20053;-62
2023/04/28 02:35:12;;;;;;;15.05;9.55;;;5.40;99.90;;;;;;5015968;28;20061;-62
2023/04/28 02:37:38;;;;;;;14.88;9.10;;;5.60;99.90;;;;;;5015955;28;20093;-62
2023/04/28 02:40:04;;;;;;;15.13;9.82;;;5.20;99.90;;;;;;5015875;28;20135;-62
2023/04/28 02:42:30;;;;;;;16.42;9.65;;;5.60;99.90;;;;;;5015596;28;20498;-63
2023/04/28 02:44:56;;;;;;;17.63;10.90;;;5.70;99.90;;;;;;5015101;28;20052;-62
2023/04/28 02:47:21;;;;;;;16.00;10.73;;;5.30;99.90;;;;;;5015893;28;20042;-62
2023/04/28 02:49:50;;;;;;;17.08;10.73;;;5.80;99.90;;;;;;5015625;28;20088;-62
2023/04/28 02:52:15;;;;;;;15.25;10.18;;;5.70;99.90;;;;;;5016089;28;20053;-63
2023/04/28 02:54:41;;;;;;;20.20;10.48;;;5.60;99.90;;;;;;5015699;28;20412;-62
2023/04/28 02:57:07;;;;;;;16.42;9.93;;;5.70;99.90;;;;;;5015557;28;20053;-62
2023/04/28 02:59:33;;;;;;;18.35;10.63;;;5.50;99.90;;;;;;5015510;28;20042;-61
2023/04/28 03:01:58;;;;;;;18.25;10.90;;;5.50;99.90;;;;;;5015541;28;20046;-63
2023/04/28 03:04:24;;;;;;;19.90;11.38;;;;;;;;;;5015463;28;20061;-64
2023/04/28 03:06:50;;;;;;;19.83;10.45;;;5.70;99.90;;;;;;5015440;28;20429;-62
2023/04/28 03:09:16;;;;;;;16.40;10.55;;;5.80;99.90;;;;;;5015964;28;20052;-62
2023/04/28 03:11:41;;;;;;;19.35;10.90;;;5.80;99.90;;;;;;5015349;28;20191;-62
2023/04/28 03:14:07;;;;;;;15.48;10.75;;;5.70;99.90;;;;;;5015321;28;20077;-62
2023/04/28 03:16:33;;;;;;;19.58;11.60;;;5.50;99.90;;;;;;5015187;28;20057;-62
2023/04/28 03:18:59;;;;;;;20.63;12.50;;;5.70;99.90;;;;;;5015880;28;20038;-62
2023/04/28 03:21:27;;;;;;;17.10;11.45;;;6.00;99.90;;;;;;5015061;28;20133;-64
2023/04/28 03:23:53;;;;;;;16.42;11.63;;;5.70;99.90;;;;;;5015021;28;20076;-62
2023/04/28 03:26:19;;;;;;;18.73;11.70;;;;;;;;;;5015762;28;20046;-61
2023/04/28 03:28:45;;;;;;;22.67;13.18;;;6.00;99.90;;;;;;5014892;28;20050;-62
2023/04/28 03:31:11;;;;;;;17.02;12.68;;;5.80;99.90;;;;;;5015210;28;20049;-65
2023/04/28 03:33:36;;;;;;;21.77;13.32;;;5.80;99.90;;;;;;5014931;28;20124;-62
2023/04/28 03:36:02;;;;;;;19.25;12.48;;;5.80;99.90;;;;;;5015367;28;20054;-62
2023/04/28 03:38:28;;;;;;;22.92;13.80;;;5.70;99.90;;;;;;5015354;28;20056;-62
2023/04/28 03:40:54;;;;;;;20.35;12.82;;;5.60;99.90;;;;;;5013372;28;20042;-62
2023/04/28 03:43:19;;;;;;;22.55;13.82;;;6.10;99.90;;;;;;5015071;28;20062;-62
2023/04/28 03:45:46;;;;;;;20.75;13.32;;;;;;;;;;5014716;28;20053;-62
2023/04/28 03:48:11;;;;;;;;;;;5.70;99.90;;;;;;5015106;28;20132;-63
2023/04/28 03:50:39;;;;;;;21.50;13.10;;;6.00;99.90;;;;;;5014480;28;20360;-62
2023/04/28 03:53:05;;;;;;;24.67;13.05;;;5.80;99.90;;;;;;5015170;28;20042;-61
2023/04/28 03:55:31;;;;;;;24.73;13.43;;;5.80;99.90;;;;;;5014608;28;20149;-62
2023/04/28 03:57:56;;;;;;;20.90;13.38;;;5.80;99.90;;;;;;5013574;28;20448;-64
2023/04/28 04:00:22;;;;;;;21.70;14.43;;;5.90;99.90;;;;;;5014940;28;20128;-62
2023/04/28 04:02:48;;;;;;;22.63;13.70;;;5.70;99.90;;;;;;5014479;28;20039;-62
2023/04/28 04:05:13;;;;;;;24.27;14.07;;;6.00;99.90;;;;;;5014431;28;20042;-62
2023/04/28 04:07:39;;;;;;;19.20;13.18;;;6.10;99.90;;;;;;5014334;28;20051;-63
2023/04/28 04:10:06;;;;;;;25.88;13.77;;;6.00;99.90;;;;;;5014207;28;20046;-62
2023/04/28 04:12:31;;;;;;;23.58;13.38;;;6.20;99.90;;;;;;5014269;28;20124;-66
2023/04/28 04:14:57;;;;;;;21.08;13.65;;;5.90;99.90;;;;;;5014240;28;20138;-63
2023/04/28 04:17:23;;;;;;;23.17;14.38;;;6.10;99.90;;;;;;5013718;28;20493;-63
2023/04/28 04:19:48;;;;;;;24.50;13.68;;;5.80;99.90;;;;;;5014167;28;20393;-62
2023/04/28 04:22:14;;;;;;;23.55;13.05;;;5.80;99.90;;;;;;5014090;28;20050;-62
2023/04/28 04:24:40;;;;;;;24.13;13.00;;;5.80;99.90;;;;;;5014090;28;20052;-62
2023/04/28 04:27:05;;;;;;;21.67;13.57;;;6.30;99.90;;;;;;5014477;28;20061;-62
2023/04/28 04:29:31;;;;;;;22.15;13.48;;;5.80;99.90;;;;;;5013614;28;20042;-62
2023/04/28 04:31:57;;;;;;;24.17;13.02;;;6.00;99.90;;;;;;5014013;28;20137;-64
2023/04/28 04:34:22;;;;;;;21.60;13.27;;;5.90;99.90;;;;;;5013917;28;20037;-62
2023/04/28 04:36:48;;;;;;;23.85;15.75;;;5.90;99.90;;;;;;5014013;28;20050;-62
2023/04/28 04:39:14;;;;;;;23.40;13.75;;;6.10;99.90;;;;;;5013867;28;20421;-64
2023/04/28 04:41:41;;;;;;;25.33;13.32;;;6.40;99.90;;;;;;5012555;28;20128;-62
2023/04/28 04:44:06;;;;;;;22.98;13.50;;;6.30;99.90;;;;;;5014364;28;20053;-62
2023/04/28 04:46:32;;;;;;;24.10;13.80;;;6.00;99.90;;;;;;5014032;28;20149;-63
2023/04/28 04:48:58;;;;;;;24.00;15.23;;;6.10;99.90;;;;;;5013531;28;20117;-62
2023/04/28 04:51:23;;;;;;;24.60;15.25;;;6.00;99.90;;;;;;5013650;28;20100;-61
2023/04/28 04:53:49;;;;;;;31.48;14.32;;;6.20;99.90;;;;;;5014243;28;20084;-63
2023/04/28 04:56:15;;;;;;;24.60;14.38;;;6.30;99.90;;;;;;5014178;28;20541;-62
2023/04/28 04:58:43;;;;;;;26.63;15.02;;;6.20;99.90;;;;;;5014066;28;20466;-63
2023/04/28 05:01:09;;;;;;;26.35;14.85;;;6.20;99.90;;;;;;5013481;28;20486;-62
2023/04/28 05:03:35;;;;;;;27.20;15.20;;;;;;;;;;5013604;28;20053;-62
2023/04/28 05:06:02;;;;;;;34.40;14.75;;;5.90;99.90;;;;;;5012614;28;20054;-63
2023/04/28 05:08:28;;;;;;;27.15;15.07;;;6.10;99.90;;;;;;5013826;28;20060;-63
2023/04/28 05:10:53;;;;;;;25.92;15.48;;;6.20;99.90;;;;;;5017443;28;20050;-62
2023/04/28 05:13:19;;;;;;;23.50;14.73;;;6.20;99.90;;;;;;5017570;28;20046;-62
2023/04/28 05:15:45;;;;;;;24.98;14.98;;;6.40;99.90;;;;;;5017593;28;20054;-63
2023/04/28 05:18:12;;;;;;;30.50;15.07;;;6.20;99.90;;;;;;5017684;28;20053;-62
2023/04/28 05:20:38;;;;;;;23.42;14.55;;;6.20;99.90;;;;;;5017840;28;20042;-64
2023/04/28 05:23:04;;;;;;;27.20;15.35;;;6.30;99.90;;;;;;5017378;28;20078;-63
2023/04/28 05:25:30;;;;;;;;;;;6.10;99.90;;;;;;5018010;28;20052;-63
2023/04/28 05:27:56;;;;;;;29.08;15.10;;;6.30;99.90;;;;;;5016953;28;20012;-62
2023/04/28 05:30:21;;;;;;;24.10;15.45;;;6.70;99.90;;;;;;5017142;28;20061;-65
2023/04/28 05:32:47;;;;;;;28.55;15.93;;;;;;;;;;5016997;28;20050;-64
2023/04/28 05:35:14;;;;;;;29.17;15.05;;;6.50;99.90;;;;;;5017688;28;20454;-63
2023/04/28 05:37:42;;;;;;;25.38;14.88;;;6.30;99.90;;;;;;5017609;28;20050;-64
2023/04/28 05:40:08;;;;;;;26.65;15.20;;;6.40;99.90;;;;;;5017033;28;20073;-66
2023/04/28 05:42:34;;;;;;;;;;;6.50;99.90;;;;;;5017400;28;20196;-64
2023/04/28 05:44:59;;;;;;;26.17;15.32;;;6.30;99.90;;;;;;5016723;28;20459;-63
2023/04/28 05:47:25;;;;;;;25.45;14.68;;;6.50;99.90;;;;;;5017374;28;20053;-62
2023/04/28 05:49:51;;;;;;;26.25;14.43;;;6.60;99.90;;;;;;5015572;28;20053;-63
2023/04/28 05:52:17;;;;;;;24.42;14.27;;;6.30;99.90;;;;;;5016937;28;20041;-63
2023/04/28 05:54:42;;;;;;;22.50;13.93;;;6.60;99.90;;;;;;5016874;28;20104;-63
2023/04/28 05:57:08;;;;;;;20.98;13.95;;;6.70;99.90;;;;;;5017356;28;20438;-66
2023/04/28 05:59:34;;;;;;;25.83;14.15;;;6.80;99.90;;;;;;4999780;28;20506;-64
2023/04/28 06:01:59;;;;;;;26.83;14.90;;;6.60;99.90;;;;;;5017250;28;20052;-62
2023/04/28 06:04:25;;;;;;;22.55;13.98;;;7.00;99.90;;;;;;5016950;28;20136;-63
2023/04/28 06:06:51;;;;;;;19.55;13.70;;;7.20;99.90;;;;;;5016592;28;20041;-62
2023/04/28 06:09:17;;;;;;;22.58;12.05;;;6.80;99.90;;;;;;5016460;28;20038;-62
2023/04/28 06:11:42;;;;;;;25.38;13.30;;;7.00;99.90;;;;;;5016976;28;20085;-63
2023/04/28 06:14:08;;;;;;;25.05;13.38;;;6.90;99.90;;;;;;5016484;28;20081;-65
2023/04/28 06:16:34;;;;;;;19.90;13.27;;;7.00;99.90;;;;;;5016427;28;20046;-63
2023/04/28 06:18:59;;;;;;;20.85;12.50;;;7.30;99.90;;;;;;5016403;28;20054;-63
2023/04/28 06:21:27;;;;;;;20.67;13.02;;;7.50;99.90;;;;;;5016739;28;20042;-63
2023/04/28 06:23:53;;;;;;;21.50;13.27;;;7.00;99.90;;;;;;5016177;28;20050;-64
2023/04/28 06:26:19;;;;;;;22.88;13.40;;;6.90;99.90;;;;;;5017002;28;20481;-63
2023/04/28 06:28:45;;;;;;;22.70;13.23;;;7.40;99.90;;;;;;5016404;28;20405;-66
2023/04/28 06:31:10;;;;;;;17.95;12.18;;;7.40;99.90;;;;;;5016631;28;20054;-63
2023/04/28 06:33:36;;;;;;;24.00;14.15;;;7.50;99.90;;;;;;5016021;28;20048;-64
2023/04/28 06:36:02;;;;;;;23.95;12.75;;;7.70;99.90;;;;;;5016351;28;20132;-62
2023/04/28 06:38:28;;;;;;;;;;;7.60;99.90;;;;;;5016597;28;20385;-65
2023/04/28 06:40:54;;;;;;;20.20;13.02;;;7.40;99.90;;;;;;5016470;28;19928;-62
2023/04/28 06:43:20;;;;;;;19.15;12.60;;;7.60;99.90;;;;;;5015923;28;20057;-62
2023/04/28 06:45:45;;;;;;;20.80;13.15;;;7.40;99.90;;;;;;5015637;28;20050;-62
2023/04/28 06:48:11;;;;;;;21.77;12.70;;;7.80;99.90;;;;;;5015856;28;20104;-64
2023/04/28 06:50:37;;;;;;;21.02;13.35;;;7.70;99.90;;;;;;5015373;28;20077;-72
2023/04/28 06:53:03;;;;;;;20.90;13.45;;;7.70;99.90;;;;;;5015686;28;20045;-63
2023/04/28 06:55:28;;;;;;;22.15;14.30;;;8.60;99.90;;;;;;5015731;28;20093;-63
2023/04/28 06:57:54;;;;;;;18.30;13.30;;;8.00;99.90;;;;;;5015584;28;20082;-65
2023/04/28 07:00:20;;;;;;;17.27;12.18;;;7.60;99.90;;;;;;5015582;28;20050;-63
2023/04/28 07:02:45;;;;;;;22.13;13.80;;;7.50;99.90;;;;;;5015650;28;20045;-63
2023/04/28 07:05:11;;;;;;;25.38;13.55;;;7.80;99.90;;;;;;5015720;28;20446;-62
2023/04/28 07:07:37;;;;;;;20.98;12.88;;;7.80;99.90;;;;;;5015457;28;20050;-66
2023/04/28 07:10:03;;;;;;;;;;;7.50;99.90;;;;;;5016514;28;20420;-63
2023/04/28 07:12:29;;;;;;;19.17;13.05;;;7.80;99.90;;;;;;5015323;28;20067;-64
2023/04/28 07:14:55;;;;;;;22.33;13.38;;;8.20;99.90;;;;;;5015560;28;20050;-64
2023/04/28 07:17:20;;;;;;;21.98;13.55;;;7.20;99.90;;;;;;5015270;28;20046;-63
2023/04/28 07:19:48;;;;;;;19.42;12.55;;;7.70;99.90;;;;;;5015186;28;20136;-62
2023/04/28 07:22:14;;;;;;;19.85;12.85;;;8.40;99.90;;;;;;5014026;28;20050;-63
2023/04/28 07:24:40;;;;;;;19.00;13.07;;;8.20;99.90;;;;;;5015134;28;20188;-63
2023/04/28 07:27:05;;;;;;;19.17;11.95;;;8.00;99.90;;;;;;5015228;28;20050;-63
2023/04/28 07:29:33;;;;;;;20.65;12.10;;;8.10;99.90;;;;;;5014611;28;20046;-64
2023/04/28 07:32:03;;;;;;;21.83;12.68;;;8.00;99.90;;;;;;5014705;28;20128;-63
2023/04/28 07:34:29;;;;;;;19.70;12.77;;;8.10;99.90;;;;;;5014894;28;20050;-63
2023/04/28 07:36:55;;;;;;;19.80;13.07;;;8.10;99.90;;;;;;5014824;28;20137;-62
2023/04/28 07:39:21;;;;;;;18.65;11.88;;;8.60;99.90;;;;;;5014852;28;20077;-62
2023/04/28 07:41:47;;;;;;;20.83;11.95;;;8.00;99.90;;;;;;5015032;28;20161;-62
2023/04/28 07:44:12;;;;;;;19.17;13.07;;;8.00;99.90;;;;;;5014734;28;20131;-62
2023/04/28 07:46:38;;;;;;;20.67;11.27;;;7.90;99.90;;;;;;5014695;28;20050;-63
2023/04/28 07:49:04;;;;;;;17.85;11.25;;;8.10;99.90;;;;;;5014840;28;20068;-62
2023/04/28 07:51:30;;;;;;;19.70;11.90;;;8.30;99.90;;;;;;5014674;28;20095;-64
2023/04/28 07:53:56;;;;;;;17.20;11.77;;;8.00;99.90;;;;;;5014533;28;20046;-64
2023/04/28 07:56:23;;;;;;;16.90;11.73;;;9.00;99.90;;;;;;5014792;28;20104;-62
2023/04/28 07:58:50;;;;;;;19.98;12.20;;;8.70;99.90;;;;;;5014529;28;20077;-62
2023/04/28 08:01:15;;;;;;;18.13;11.60;;;8.50;99.90;;;;;;4996935;28;20046;-63
2023/04/28 08:03:41;;;;;;;21.58;12.18;;;8.40;99.90;;;;;;5014416;28;20073;-63
2023/04/28 08:06:07;;;;;;;14.93;11.02;;;8.90;99.90;;;;;;5014391;28;20046;-62
2023/04/28 08:08:33;;;;;;;19.75;11.80;;;8.50;99.90;;;;;;5015104;28;20053;-62
2023/04/28 08:11:00;;;;;;;24.00;12.27;;;8.60;99.90;;;;;;4996670;28;20081;-62
2023/04/28 08:13:27;;;;;;;22.65;12.07;;;8.80;99.90;;;;;;5014127;28;20045;-63
2023/04/28 08:15:55;;;;;;;18.05;11.48;;;8.50;99.90;;;;;;5014157;28;20486;-62
2023/04/28 08:18:22;;;;;;;16.08;11.25;;;8.60;99.90;;;;;;5014119;28;20060;-64
2023/04/28 08:20:48;;;;;;;21.30;11.73;;;8.60;99.90;;;;;;5014396;28;20129;-62
2023/04/28 08:23:13;;;;;;;17.77;11.20;;;8.40;99.90;;;;;;5014591;28;20502;-63
2023/04/28 08:25:40;;;;;;;15.98;11.80;;;8.50;99.90;;;;;;5012908;28;20053;-62
2023/04/28 08:28:07;;;;;;;20.17;11.70;;;8.30;99.90;;;;;;5013661;28;20509;-62
2023/04/28 08:30:33;;;;;;;16.60;11.75;;;8.90;99.90;;;;;;5013733;28;20049;-62
2023/04/28 08:32:59;;;;;;;;;;;8.60;99.90;;;;;;5014271;28;20137;-62
2023/04/28 08:35:25;;;;;;;17.50;11.65;;;8.50;99.90;;;;;;5013889;28;19952;-66
2023/04/28 08:37:54;;;;;;;19.83;11.65;;;8.60;99.90;;;;;;5013861;28;20048;-64
2023/04/28 08:40:20;;;;;;;20.75;12.90;;;9.60;99.90;;;;;;5014325;28;20057;-64
2023/04/28 08:42:46;;;;;;;19.67;12.18;;;8.90;99.90;;;;;;5013556;28;20398;-64
2023/04/28 08:45:13;;;;;;;21.73;12.50;;;9.20;99.90;;;;;;5013357;28;20045;-64
2023/04/28 08:47:48;;;;;;;21.38;12.27;;;9.60;99.90;;;;;;5013707;28;20049;-64
2023/04/28 08:50:14;;;;;;;17.20;12.52;;;9.60;99.90;;;;;;5013629;28;20038;-64
2023/04/28 08:52:41;;;;;;;17.17;12.48;;;9.40;99.90;;;;;;5013683;28;20581;-65
2023/04/28 08:55:09;;;;;;;19.55;12.65;;;9.60;99.90;;;;;;5013640;28;20046;-63
2023/04/28 08:57:41;;;;;;;17.90;11.80;;;10.00;99.90;;;;;;5014062;28;20060;-64
2023/04/28 09:00:08;;;;;;;17.58;11.48;;;9.90;99.90;;;;;;5013543;28;20557;-64
2023/04/28 09:02:34;;;;;;;;;;;9.50;99.90;;;;;;5014115;28;20144;-64
2023/04/28 09:05:00;;;;;;;17.17;11.40;;;9.80;99.90;;;;;;5013514;28;19928;-65
2023/04/28 09:07:25;;;;;;;16.13;11.82;;;10.20;99.90;;;;;;5013705;28;20050;-64
2023/04/28 09:10:21;;;;;;;17.08;12.13;;;10.00;99.90;;;;;;5013448;28;20120;-63
2023/04/28 09:12:50;;;;;;;22.85;11.70;;;10.30;99.90;;;;;;5014053;28;20054;-63
2023/04/28 09:15:31;;;;;;;21.02;12.10;;;10.00;99.90;;;;;;5013401;28;20128;-64
2023/04/28 09:17:57;;;;;;;14.48;11.60;;;10.50;99.90;;;;;;5013966;28;20057;-64
2023/04/28 09:20:27;;;;;;;19.17;12.55;;;10.40;99.90;;;;;;5013399;28;20367;-63
2023/04/28 09:22:55;;;;;;;18.08;11.57;;;10.40;99.90;;;;;;4996049;28;20398;-63
2023/04/28 09:25:22;;;;;;;16.35;11.98;;;10.70;99.90;;;;;;5013579;28;20405;-63
2023/04/28 09:27:51;;;;;;;19.23;12.13;;;11.10;99.90;;;;;;5013236;28;20120;-63
2023/04/28 09:30:17;;;;;;;17.55;11.63;;;11.20;99.90;;;;;;5013225;28;20129;-64
2023/04/28 09:32:43;;;;;;;19.10;12.10;;;10.90;99.90;;;;;;5013779;28;20049;-63
2023/04/28 09:35:09;;;;;;;;;;;10.90;99.90;;;;;;5013590;28;20046;-63
2023/04/28 09:37:36;;;;;;;19.48;11.73;;;11.30;99.90;;;;;;5012076;28;19925;-63
2023/04/28 09:40:07;;;;;;;16.88;11.55;;;11.40;99.90;;;;;;5012902;28;20500;-67
2023/04/28 09:42:38;;;;;;;16.50;11.48;;;11.80;99.90;;;;;;5013504;28;20362;-63
2023/04/28 09:45:14;;;;;;;13.75;10.95;;;11.50;99.90;;;;;;5013190;28;20089;-63
2023/04/28 09:47:42;;;;;;;17.98;12.25;;;12.00;99.90;;;;;;5012436;28;20374;-63
2023/04/28 09:50:13;;;;;;;15.38;11.50;;;12.00;99.90;;;;;;5013141;28;20087;-64
2023/04/28 09:52:44;;;;;;;15.07;11.25;;;11.90;99.90;;;;;;5013448;28;20045;-63
2023/04/28 09:55:11;;;;;;;19.05;11.85;;;12.10;99.90;;;;;;5014492;28;20046;-62
2023/04/28 09:57:38;;;;;;;17.58;11.75;;;12.00;99.90;;;;;;4999240;28;20057;-63
2023/04/28 10:00:06;;;;;;;19.30;12.18;;;12.10;99.90;;;;;;5016673;28;20046;-62
2023/04/28 10:02:35;;;;;;;16.50;11.02;;;11.40;99.90;;;;;;5017352;28;20371;-64
2023/04/28 10:05:00;;;;;;;17.10;11.90;;;11.80;99.90;;;;;;5016632;28;20053;-62
2023/04/28 10:07:27;;;;;;;17.50;11.82;;;12.00;99.90;;;;;;5016576;28;20056;-62
2023/04/28 10:09:55;;;;;;;18.05;11.40;;;12.00;99.90;;;;;;5016486;28;20478;-63
2023/04/28 10:12:21;;;;;;;17.17;11.70;;;11.70;99.90;;;;;;5016516;28;20052;-62
2023/04/28 10:14:49;;;;;;;17.35;12.15;;;11.90;99.90;;;;;;5016440;28;20100;-64
2023/04/28 10:17:16;;;;;;;16.98;11.90;;;11.70;99.90;;;;;;5016937;28;20050;-62
2023/04/28 10:19:44;;;;;;;15.27;11.23;;;11.90;99.90;;;;;;5016293;28;20038;-62
2023/04/28 10:22:21;;;;;;;19.23;12.13;;;12.00;99.90;;;;;;5016337;28;20041;-63
2023/04/28 10:25:10;;;;;;;17.92;12.65;;;12.10;99.90;;;;;;5016293;28;20046;-63
2023/04/28 10:27:39;;;;;;;17.63;11.93;;;12.00;99.90;;;;;;4986786;28;20450;-62
2023/04/28 10:30:18;;;;;;;15.55;11.60;;;12.20;99.90;;;;;;5016178;28;20049;-63
2023/04/28 10:32:45;;;;;;;14.77;11.27;;;11.80;99.90;;;;;;5016074;28;20050;-64
2023/04/28 10:35:29;;;;;;;14.73;11.45;;;11.90;99.90;;;;;;5016146;28;20058;-62
2023/04/28 10:38:09;;;;;;;17.85;11.63;;;12.20;99.90;;;;;;5016005;28;20371;-61
2023/04/28 10:40:39;;;;;;;17.48;12.55;;;12.20;99.90;;;;;;5016485;28;20042;-62
2023/04/28 10:43:06;;;;;;;17.55;12.15;;;12.10;99.90;;;;;;5015279;28;20072;-62
2023/04/28 10:45:50;;;;;;;19.30;13.02;;;11.40;99.90;;;;;;5015959;28;20046;-62
2023/04/28 10:48:21;;;;;;;15.50;11.25;;;12.00;99.90;;;;;;5015824;28;20088;-62
2023/04/28 10:51:13;;;;;;;16.45;12.00;;;11.70;99.90;;;;;;5015723;28;20130;-65
2023/04/28 10:53:45;;;;;;;19.08;11.68;;;11.40;99.90;;;;;;5015801;28;20071;-62
2023/04/28 10:56:17;;;;;;;17.40;13.05;;;11.40;99.90;;;;;;5016660;28;20061;-63
2023/04/28 10:58:45;;;;;;;17.88;12.07;;;11.00;99.90;;;;;;5015790;28;20061;-63
2023/04/28 11:01:28;;;;;;;21.42;13.82;;;11.20;99.90;;;;;;4997880;28;20058;-65
2023/04/28 11:04:15;;;;;;;22.38;14.15;;;10.90;99.90;;;;;;5015559;28;20057;-64
2023/04/28 11:07:12;;;;;;;18.77;14.25;;;11.10;99.90;;;;;;5014746;28;20093;-67
2023/04/28 11:09:38;;;;;;;19.27;14.40;;;11.00;99.90;;;;;;5015653;28;20169;-70
2023/04/28 11:12:05;;;;;;;20.75;14.45;;;11.30;99.90;;;;;;4998718;28;20050;-69
2023/04/28 11:14:35;;;;;;;23.92;15.52;;;11.50;99.90;;;;;;5015256;28;20057;-70
2023/04/28 11:17:07;;;;;;;20.88;15.57;;;11.10;99.90;;;;;;5015927;28;20045;-72
2023/04/28 11:19:37;;;;;;;21.13;16.55;;;11.70;99.90;;;;;;5015093;28;20042;-72
2023/04/28 11:22:14;;;;;;;25.15;16.23;;;11.20;99.90;;;;;;5015511;28;20061;-69
2023/04/28 11:24:40;;;;;;;22.00;14.80;;;11.70;99.90;;;;;;5015655;28;20045;-70
2023/04/28 11:27:06;;;;;;;23.40;15.50;;;11.40;99.90;;;;;;5015035;28;20046;-69
2023/04/28 11:29:36;;;;;;;26.77;16.52;;;11.00;99.90;;;;;;5015368;28;20039;-70
2023/04/28 11:32:07;;;;;;;21.02;15.95;;;10.80;99.90;;;;;;4997585;28;20504;-70
2023/04/28 11:34:33;;;;;;;22.23;16.20;;;10.90;99.90;;;;;;5014526;28;20053;-69
2023/04/28 11:36:59;;;;;;;25.40;16.10;;;10.90;99.90;;;;;;5014898;28;20057;-72
2023/04/28 11:39:30;;;;;;;27.00;16.23;;;10.60;99.90;;;;;;5015401;28;20050;-79
2023/04/28 11:41:57;;;;;;;21.67;15.13;;;10.80;99.90;;;;;;4997087;28;20054;-81
2023/04/28 11:44:25;;;;;;;24.02;16.65;;;10.60;99.90;;;;;;5015057;28;20107;-83
2023/04/28 11:46:59;;;;;;;25.58;17.00;;;10.50;99.90;;;;;;5014427;28;20564;-77
2023/04/28 11:49:41;;;;;;;21.42;16.77;;;10.40;99.90;;;;;;5015451;28;20422;-75
2023/04/28 11:52:08;;;;;;;24.17;17.67;;;10.80;99.90;;;;;;5014337;28;20545;-73
2023/04/28 11:54:34;;;;;;;28.23;16.73;;;10.40;99.90;;;;;;5014496;28;20049;-74
2023/04/28 11:57:02;;;;;;;29.55;17.65;;;10.70;99.90;;;;;;5014048;28;20379;-72
2023/04/28 11:59:32;;;;;;;22.85;16.15;;;10.40;99.90;;;;;;5014817;28;20405;-72
2023/04/28 12:02:05;;;;;;;22.85;17.20;;;10.60;99.90;;;;;;5014352;28;20046;-72
2023/04/28 12:04:38;;;;;;;26.13;17.83;;;10.80;99.90;;;;;;5014919;28;20045;-77
2023/04/28 12:07:12;;;;;;;25.42;17.65;;;10.50;99.90;;;;;;5014858;28;20053;-76
2023/04/28 12:09:40;;;;;;;27.88;18.48;;;9.80;99.90;;;;;;5014205;28;20045;-75
2023/04/28 12:12:08;;;;;;;29.45;17.85;;;10.80;99.90;;;;;;5014812;28;20482;-74
2023/04/28 12:15:00;;;;;;;27.75;18.95;;;10.80;99.90;;;;;;4997634;28;20124;-74
2023/04/28 12:17:37;;;;;;;28.38;18.77;;;10.70;99.90;;;;;;5014022;28;20049;-72
2023/04/28 12:20:06;;;;;;;26.85;18.70;;;10.60;99.90;;;;;;5014898;28;20046;-74
2023/04/28 12:22:43;;;;;;;24.67;18.55;;;10.60;99.90;;;;;;5013960;28;20052;-81
2023/04/28 12:25:11;;;;;;;26.67;19.25;;;9.80;99.90;;;;;;5014534;28;20053;-76
2023/04/28 12:27:39;;;;;;;29.52;20.45;;;10.50;99.90;;;;;;5013244;28;20057;-76
2023/04/28 12:30:29;;;;;;;31.17;18.88;;;10.30;99.90;;;;;;5012866;28;20129;-79
2023/04/28 12:32:56;;;;;;;29.83;19.45;;;10.40;99.90;;;;;;4997416;28;20050;-75
2023/04/28 12:35:24;;;;;;;29.42;19.33;;;9.90;99.90;;;;;;4997229;28;20046;-78
2023/04/28 12:37:50;;;;;;;27.52;20.58;;;10.40;99.90;;;;;;5013891;28;20046;-78
2023/04/28 12:40:16;;;;;;;;;;;10.40;99.90;;;;;;5014237;28;20045;-78
2023/04/28 12:42:41;;;;;;;29.52;19.83;;;10.20;99.90;;;;;;5014206;28;19922;-77